sensor_id;sensor_type;location;lat;lon;timestamp;P1;durP1;ratioP1;P2;durP2;ratioP2
79149;SDS011;68563;45.644;13.782;2023-05-18T00:00:03;1.00;;;0.60;;
79149;SDS011;68563;45.644;13.782;2023-05-18T00:02:34;1.92;;;0.60;;
79149;SDS011;68563;45.644;13.782;2023-05-18T00:05:00;0.98;;;0.32;;
79149;SDS011;68563;45.644;13.782;2023-05-18T00:07:26;0.85;;;0.70;;
79149;SDS011;68563;45.644;13.782;2023-05-18T00:09:54;0.70;;;0.70;;
79149;SDS011;68563;45.644;13.782;2023-05-18T00:12:19;0.65;;;0.55;;
79149;SDS011;68563;45.644;13.782;2023-05-18T00:14:45;0.80;;;0.70;;
79149;SDS011;68563;45.644;13.782;2023-05-18T00:17:10;2.17;;;0.60;;
79149;SDS011;68563;45.644;13.782;2023-05-18T00:19:35;2.80;;;0.52;;
79149;SDS011;68563;45.644;13.782;2023-05-18T00:22:01;1.00;;;0.50;;
79149;SDS011;68563;45.644;13.782;2023-05-18T00:24:26;0.52;;;0.50;;
79149;SDS011;68563;45.644;13.782;2023-05-18T00:26:52;0.85;;;0.60;;
79149;SDS011;68563;45.644;13.782;2023-05-18T00:29:17;3.92;;;0.68;;
79149;SDS011;68563;45.644;13.782;2023-05-18T00:31:42;0.90;;;0.80;;
79149;SDS011;68563;45.644;13.782;2023-05-18T00:34:10;1.85;;;0.40;;
79149;SDS011;68563;45.644;13.782;2023-05-18T00:36:36;0.70;;;0.40;;
79149;SDS011;68563;45.644;13.782;2023-05-18T00:39:03;2.40;;;0.40;;
79149;SDS011;68563;45.644;13.782;2023-05-18T00:41:29;0.95;;;0.50;;
79149;SDS011;68563;45.644;13.782;2023-05-18T00:43:55;0.60;;;0.50;;
79149;SDS011;68563;45.644;13.782;2023-05-18T00:46:21;1.33;;;0.38;;
79149;SDS011;68563;45.644;13.782;2023-05-18T00:48:48;0.55;;;0.40;;
79149;SDS011;68563;45.644;13.782;2023-05-18T00:51:15;0.95;;;0.38;;
79149;SDS011;68563;45.644;13.782;2023-05-18T00:53:44;0.93;;;0.65;;
79149;SDS011;68563;45.644;13.782;2023-05-18T00:56:09;0.77;;;0.50;;
79149;SDS011;68563;45.644;13.782;2023-05-18T00:58:35;0.90;;;0.60;;
79149;SDS011;68563;45.644;13.782;2023-05-18T01:01:00;0.52;;;0.50;;
79149;SDS011;68563;45.644;13.782;2023-05-18T01:03:26;0.50;;;0.50;;
79149;SDS011;68563;45.644;13.782;2023-05-18T01:05:54;0.60;;;0.60;;
79149;SDS011;68563;45.644;13.782;2023-05-18T01:08:22;1.30;;;0.50;;
79149;SDS011;68563;45.644;13.782;2023-05-18T01:14:12;2.42;;;0.47;;
79149;SDS011;68563;45.644;13.782;2023-05-18T01:16:47;0.55;;;0.40;;
79149;SDS011;68563;45.644;13.782;2023-05-18T01:19:22;0.52;;;0.40;;
79149;SDS011;68563;45.644;13.782;2023-05-18T01:21:56;0.98;;;0.43;;
79149;SDS011;68563;45.644;13.782;2023-05-18T01:27:09;1.15;;;0.30;;
79149;SDS011;68563;45.644;13.782;2023-05-18T01:29:41;0.93;;;0.40;;
79149;SDS011;68563;45.644;13.782;2023-05-18T01:32:07;0.50;;;0.40;;
79149;SDS011;68563;45.644;13.782;2023-05-18T01:34:32;1.67;;;0.50;;
79149;SDS011;68563;45.644;13.782;2023-05-18T01:36:58;0.50;;;0.38;;
79149;SDS011;68563;45.644;13.782;2023-05-18T01:39:23;0.45;;;0.45;;
79149;SDS011;68563;45.644;13.782;2023-05-18T01:41:57;1.55;;;0.60;;
79149;SDS011;68563;45.644;13.782;2023-05-18T01:44:44;0.50;;;0.50;;
79149;SDS011;68563;45.644;13.782;2023-05-18T01:47:15;2.60;;;0.50;;
79149;SDS011;68563;45.644;13.782;2023-05-18T01:52:10;0.73;;;0.40;;
79149;SDS011;68563;45.644;13.782;2023-05-18T01:54:42;0.50;;;0.43;;
79149;SDS011;68563;45.644;13.782;2023-05-18T01:57:10;0.45;;;0.32;;
79149;SDS011;68563;45.644;13.782;2023-05-18T01:59:36;0.60;;;0.50;;
79149;SDS011;68563;45.644;13.782;2023-05-18T02:02:02;1.27;;;0.30;;
79149;SDS011;68563;45.644;13.782;2023-05-18T02:04:28;0.82;;;0.50;;
79149;SDS011;68563;45.644;13.782;2023-05-18T02:06:54;0.95;;;0.50;;
79149;SDS011;68563;45.644;13.782;2023-05-18T02:09:20;0.98;;;0.50;;
79149;SDS011;68563;45.644;13.782;2023-05-18T02:11:46;1.85;;;0.30;;
79149;SDS011;68563;45.644;13.782;2023-05-18T02:14:12;0.63;;;0.30;;
79149;SDS011;68563;45.644;13.782;2023-05-18T02:16:38;0.20;;;0.20;;
79149;SDS011;68563;45.644;13.782;2023-05-18T02:19:03;0.38;;;0.30;;
79149;SDS011;68563;45.644;13.782;2023-05-18T02:21:29;0.38;;;0.30;;
79149;SDS011;68563;45.644;13.782;2023-05-18T02:23:54;3.10;;;0.40;;
79149;SDS011;68563;45.644;13.782;2023-05-18T02:26:20;1.00;;;0.63;;
79149;SDS011;68563;45.644;13.782;2023-05-18T02:28:46;0.82;;;0.30;;
79149;SDS011;68563;45.644;13.782;2023-05-18T02:31:12;0.40;;;0.40;;
79149;SDS011;68563;45.644;13.782;2023-05-18T02:33:37;0.98;;;0.50;;
79149;SDS011;68563;45.644;13.782;2023-05-18T02:36:10;0.55;;;0.50;;
79149;SDS011;68563;45.644;13.782;2023-05-18T02:38:40;1.75;;;0.43;;
79149;SDS011;68563;45.644;13.782;2023-05-18T02:41:07;0.88;;;0.63;;
79149;SDS011;68563;45.644;13.782;2023-05-18T02:43:33;1.10;;;0.47;;
79149;SDS011;68563;45.644;13.782;2023-05-18T02:45:59;0.88;;;0.60;;
79149;SDS011;68563;45.644;13.782;2023-05-18T02:48:24;0.50;;;0.38;;
79149;SDS011;68563;45.644;13.782;2023-05-18T02:50:50;0.57;;;0.30;;
79149;SDS011;68563;45.644;13.782;2023-05-18T02:53:16;1.70;;;0.40;;
79149;SDS011;68563;45.644;13.782;2023-05-18T02:55:41;2.13;;;0.50;;
79149;SDS011;68563;45.644;13.782;2023-05-18T02:58:07;0.60;;;0.32;;
79149;SDS011;68563;45.644;13.782;2023-05-18T03:00:33;0.40;;;0.40;;
79149;SDS011;68563;45.644;13.782;2023-05-18T03:02:59;0.40;;;0.30;;
79149;SDS011;68563;45.644;13.782;2023-05-18T03:05:25;0.73;;;0.45;;
79149;SDS011;68563;45.644;13.782;2023-05-18T03:07:51;0.50;;;0.45;;
79149;SDS011;68563;45.644;13.782;2023-05-18T03:10:20;0.50;;;0.40;;
79149;SDS011;68563;45.644;13.782;2023-05-18T03:12:46;0.50;;;0.50;;
79149;SDS011;68563;45.644;13.782;2023-05-18T03:15:12;0.63;;;0.40;;
79149;SDS011;68563;45.644;13.782;2023-05-18T03:17:40;0.40;;;0.38;;
79149;SDS011;68563;45.644;13.782;2023-05-18T03:20:07;0.98;;;0.40;;
79149;SDS011;68563;45.644;13.782;2023-05-18T03:22:35;1.02;;;0.30;;
79149;SDS011;68563;45.644;13.782;2023-05-18T03:25:01;0.70;;;0.47;;
79149;SDS011;68563;45.644;13.782;2023-05-18T03:27:26;0.40;;;0.30;;
79149;SDS011;68563;45.644;13.782;2023-05-18T03:29:52;2.25;;;0.50;;
79149;SDS011;68563;45.644;13.782;2023-05-18T03:32:18;0.70;;;0.40;;
79149;SDS011;68563;45.644;13.782;2023-05-18T03:34:44;0.60;;;0.60;;
79149;SDS011;68563;45.644;13.782;2023-05-18T03:37:11;0.80;;;0.50;;
79149;SDS011;68563;45.644;13.782;2023-05-18T03:39:37;0.40;;;0.40;;
79149;SDS011;68563;45.644;13.782;2023-05-18T03:42:03;0.70;;;0.40;;
79149;SDS011;68563;45.644;13.782;2023-05-18T03:44:28;1.58;;;0.50;;
79149;SDS011;68563;45.644;13.782;2023-05-18T03:46:54;0.95;;;0.43;;
79149;SDS011;68563;45.644;13.782;2023-05-18T03:49:19;0.38;;;0.30;;
79149;SDS011;68563;45.644;13.782;2023-05-18T03:51:45;0.82;;;0.50;;
79149;SDS011;68563;45.644;13.782;2023-05-18T03:54:10;0.60;;;0.60;;
79149;SDS011;68563;45.644;13.782;2023-05-18T03:56:36;2.95;;;0.60;;
79149;SDS011;68563;45.644;13.782;2023-05-18T03:59:01;0.45;;;0.45;;
79149;SDS011;68563;45.644;13.782;2023-05-18T04:01:28;1.10;;;0.68;;
79149;SDS011;68563;45.644;13.782;2023-05-18T04:03:55;1.45;;;0.40;;
79149;SDS011;68563;45.644;13.782;2023-05-18T04:06:21;0.47;;;0.35;;
79149;SDS011;68563;45.644;13.782;2023-05-18T04:08:47;0.95;;;0.30;;
79149;SDS011;68563;45.644;13.782;2023-05-18T04:11:14;0.40;;;0.40;;
79149;SDS011;68563;45.644;13.782;2023-05-18T04:13:39;0.60;;;0.55;;
79149;SDS011;68563;45.644;13.782;2023-05-18T04:16:05;1.08;;;0.40;;
79149;SDS011;68563;45.644;13.782;2023-05-18T04:18:32;1.50;;;0.30;;
79149;SDS011;68563;45.644;13.782;2023-05-18T04:20:57;0.50;;;0.45;;
79149;SDS011;68563;45.644;13.782;2023-05-18T04:23:24;0.82;;;0.45;;
79149;SDS011;68563;45.644;13.782;2023-05-18T04:25:49;1.45;;;0.50;;
79149;SDS011;68563;45.644;13.782;2023-05-18T04:28:15;1.48;;;0.40;;
79149;SDS011;68563;45.644;13.782;2023-05-18T04:30:40;0.85;;;0.60;;
79149;SDS011;68563;45.644;13.782;2023-05-18T04:33:06;1.73;;;0.50;;
79149;SDS011;68563;45.644;13.782;2023-05-18T04:35:32;0.52;;;0.32;;
79149;SDS011;68563;45.644;13.782;2023-05-18T04:37:57;0.45;;;0.30;;
79149;SDS011;68563;45.644;13.782;2023-05-18T04:40:23;1.20;;;0.70;;
79149;SDS011;68563;45.644;13.782;2023-05-18T04:42:49;2.22;;;0.60;;
79149;SDS011;68563;45.644;13.782;2023-05-18T04:45:18;0.82;;;0.50;;
79149;SDS011;68563;45.644;13.782;2023-05-18T04:47:47;0.50;;;0.38;;
79149;SDS011;68563;45.644;13.782;2023-05-18T04:50:17;0.50;;;0.40;;
79149;SDS011;68563;45.644;13.782;2023-05-18T04:52:44;0.50;;;0.45;;
79149;SDS011;68563;45.644;13.782;2023-05-18T04:55:18;0.68;;;0.50;;
79149;SDS011;68563;45.644;13.782;2023-05-18T04:57:51;0.80;;;0.50;;
79149;SDS011;68563;45.644;13.782;2023-05-18T05:00:20;0.73;;;0.60;;
79149;SDS011;68563;45.644;13.782;2023-05-18T05:02:46;0.60;;;0.57;;
79149;SDS011;68563;45.644;13.782;2023-05-18T05:05:11;1.05;;;0.50;;
79149;SDS011;68563;45.644;13.782;2023-05-18T05:07:37;0.60;;;0.50;;
79149;SDS011;68563;45.644;13.782;2023-05-18T05:10:02;0.60;;;0.30;;
79149;SDS011;68563;45.644;13.782;2023-05-18T05:12:28;2.22;;;0.50;;
79149;SDS011;68563;45.644;13.782;2023-05-18T05:14:54;0.45;;;0.40;;
79149;SDS011;68563;45.644;13.782;2023-05-18T05:17:21;0.50;;;0.43;;
79149;SDS011;68563;45.644;13.782;2023-05-18T05:19:46;0.80;;;0.50;;
79149;SDS011;68563;45.644;13.782;2023-05-18T05:22:12;0.75;;;0.60;;
79149;SDS011;68563;45.644;13.782;2023-05-18T05:24:37;1.40;;;0.50;;
79149;SDS011;68563;45.644;13.782;2023-05-18T05:27:02;0.50;;;0.40;;
79149;SDS011;68563;45.644;13.782;2023-05-18T05:29:28;0.40;;;0.40;;
79149;SDS011;68563;45.644;13.782;2023-05-18T05:31:53;0.57;;;0.47;;
79149;SDS011;68563;45.644;13.782;2023-05-18T05:34:19;0.93;;;0.30;;
79149;SDS011;68563;45.644;13.782;2023-05-18T05:36:44;0.40;;;0.30;;
79149;SDS011;68563;45.644;13.782;2023-05-18T05:39:10;1.30;;;0.40;;
79149;SDS011;68563;45.644;13.782;2023-05-18T05:41:35;0.50;;;0.40;;
79149;SDS011;68563;45.644;13.782;2023-05-18T05:44:02;0.38;;;0.30;;
79149;SDS011;68563;45.644;13.782;2023-05-18T05:46:27;0.73;;;0.40;;
79149;SDS011;68563;45.644;13.782;2023-05-18T05:48:53;1.48;;;0.40;;
79149;SDS011;68563;45.644;13.782;2023-05-18T05:51:18;0.80;;;0.38;;
79149;SDS011;68563;45.644;13.782;2023-05-18T05:53:43;0.50;;;0.50;;
79149;SDS011;68563;45.644;13.782;2023-05-18T05:56:11;0.82;;;0.60;;
79149;SDS011;68563;45.644;13.782;2023-05-18T05:58:37;0.45;;;0.40;;
79149;SDS011;68563;45.644;13.782;2023-05-18T06:01:02;0.80;;;0.45;;
79149;SDS011;68563;45.644;13.782;2023-05-18T06:03:28;0.65;;;0.50;;
79149;SDS011;68563;45.644;13.782;2023-05-18T06:05:55;1.05;;;0.57;;
79149;SDS011;68563;45.644;13.782;2023-05-18T06:08:21;1.73;;;0.30;;
79149;SDS011;68563;45.644;13.782;2023-05-18T06:10:48;0.88;;;0.57;;
79149;SDS011;68563;45.644;13.782;2023-05-18T06:13:13;0.73;;;0.50;;
79149;SDS011;68563;45.644;13.782;2023-05-18T06:15:39;0.95;;;0.60;;
79149;SDS011;68563;45.644;13.782;2023-05-18T06:18:05;0.77;;;0.50;;
79149;SDS011;68563;45.644;13.782;2023-05-18T06:20:30;2.03;;;0.40;;
79149;SDS011;68563;45.644;13.782;2023-05-18T06:22:56;0.60;;;0.57;;
79149;SDS011;68563;45.644;13.782;2023-05-18T06:25:21;0.60;;;0.50;;
79149;SDS011;68563;45.644;13.782;2023-05-18T06:27:47;0.88;;;0.50;;
79149;SDS011;68563;45.644;13.782;2023-05-18T06:30:12;1.05;;;0.40;;
79149;SDS011;68563;45.644;13.782;2023-05-18T06:32:38;0.70;;;0.50;;
79149;SDS011;68563;45.644;13.782;2023-05-18T06:35:04;0.50;;;0.40;;
79149;SDS011;68563;45.644;13.782;2023-05-18T06:37:30;1.38;;;0.50;;
79149;SDS011;68563;45.644;13.782;2023-05-18T06:39:56;0.40;;;0.40;;
79149;SDS011;68563;45.644;13.782;2023-05-18T06:42:22;0.73;;;0.60;;
79149;SDS011;68563;45.644;13.782;2023-05-18T06:44:47;0.40;;;0.30;;
79149;SDS011;68563;45.644;13.782;2023-05-18T06:47:14;0.70;;;0.68;;
79149;SDS011;68563;45.644;13.782;2023-05-18T06:49:40;0.82;;;0.40;;
79149;SDS011;68563;45.644;13.782;2023-05-18T06:52:06;2.05;;;0.40;;
79149;SDS011;68563;45.644;13.782;2023-05-18T06:54:33;0.75;;;0.50;;
79149;SDS011;68563;45.644;13.782;2023-05-18T06:56:59;0.65;;;0.40;;
79149;SDS011;68563;45.644;13.782;2023-05-18T06:59:25;1.08;;;0.40;;
79149;SDS011;68563;45.644;13.782;2023-05-18T07:01:50;0.85;;;0.50;;
79149;SDS011;68563;45.644;13.782;2023-05-18T07:04:16;0.60;;;0.40;;
79149;SDS011;68563;45.644;13.782;2023-05-18T07:06:43;0.52;;;0.43;;
79149;SDS011;68563;45.644;13.782;2023-05-18T07:09:09;0.90;;;0.50;;
79149;SDS011;68563;45.644;13.782;2023-05-18T07:11:34;1.50;;;0.40;;
79149;SDS011;68563;45.644;13.782;2023-05-18T07:13:59;0.88;;;0.32;;
79149;SDS011;68563;45.644;13.782;2023-05-18T07:16:25;0.40;;;0.30;;
79149;SDS011;68563;45.644;13.782;2023-05-18T07:18:51;1.98;;;0.50;;
79149;SDS011;68563;45.644;13.782;2023-05-18T07:21:17;4.50;;;0.55;;
79149;SDS011;68563;45.644;13.782;2023-05-18T07:23:42;0.90;;;0.60;;
79149;SDS011;68563;45.644;13.782;2023-05-18T07:26:08;1.58;;;0.80;;
79149;SDS011;68563;45.644;13.782;2023-05-18T07:28:35;1.58;;;0.60;;
79149;SDS011;68563;45.644;13.782;2023-05-18T07:31:01;1.50;;;0.50;;
79149;SDS011;68563;45.644;13.782;2023-05-18T07:33:27;0.60;;;0.43;;
79149;SDS011;68563;45.644;13.782;2023-05-18T07:35:52;1.83;;;0.43;;
79149;SDS011;68563;45.644;13.782;2023-05-18T07:38:18;0.95;;;0.60;;
79149;SDS011;68563;45.644;13.782;2023-05-18T07:40:43;0.68;;;0.50;;
79149;SDS011;68563;45.644;13.782;2023-05-18T07:43:09;1.02;;;0.70;;
79149;SDS011;68563;45.644;13.782;2023-05-18T07:45:34;0.55;;;0.45;;
79149;SDS011;68563;45.644;13.782;2023-05-18T07:47:59;0.50;;;0.40;;
79149;SDS011;68563;45.644;13.782;2023-05-18T07:50:25;0.47;;;0.40;;
79149;SDS011;68563;45.644;13.782;2023-05-18T07:52:53;1.60;;;0.55;;
79149;SDS011;68563;45.644;13.782;2023-05-18T07:55:19;0.60;;;0.38;;
79149;SDS011;68563;45.644;13.782;2023-05-18T07:57:44;0.63;;;0.40;;
79149;SDS011;68563;45.644;13.782;2023-05-18T08:00:10;2.05;;;0.47;;
79149;SDS011;68563;45.644;13.782;2023-05-18T08:02:36;1.85;;;0.50;;
79149;SDS011;68563;45.644;13.782;2023-05-18T08:05:01;0.50;;;0.50;;
79149;SDS011;68563;45.644;13.782;2023-05-18T08:07:27;1.92;;;0.52;;
79149;SDS011;68563;45.644;13.782;2023-05-18T08:09:54;0.98;;;0.70;;
79149;SDS011;68563;45.644;13.782;2023-05-18T08:12:20;1.90;;;0.50;;
79149;SDS011;68563;45.644;13.782;2023-05-18T08:14:45;0.70;;;0.60;;
79149;SDS011;68563;45.644;13.782;2023-05-18T08:17:10;1.23;;;0.60;;
79149;SDS011;68563;45.644;13.782;2023-05-18T08:19:36;1.92;;;0.70;;
79149;SDS011;68563;45.644;13.782;2023-05-18T08:22:01;0.75;;;0.40;;
79149;SDS011;68563;45.644;13.782;2023-05-18T08:24:27;2.15;;;0.63;;
79149;SDS011;68563;45.644;13.782;2023-05-18T08:26:52;1.58;;;0.68;;
79149;SDS011;68563;45.644;13.782;2023-05-18T08:29:18;0.82;;;0.52;;
79149;SDS011;68563;45.644;13.782;2023-05-18T08:31:43;0.65;;;0.50;;
79149;SDS011;68563;45.644;13.782;2023-05-18T08:34:08;1.02;;;0.70;;
79149;SDS011;68563;45.644;13.782;2023-05-18T08:36:34;1.02;;;0.52;;
79149;SDS011;68563;45.644;13.782;2023-05-18T08:39:00;0.80;;;0.60;;
79149;SDS011;68563;45.644;13.782;2023-05-18T08:41:31;1.40;;;0.60;;
79149;SDS011;68563;45.644;13.782;2023-05-18T08:44:02;0.70;;;0.60;;
79149;SDS011;68563;45.644;13.782;2023-05-18T08:46:34;2.28;;;0.50;;
79149;SDS011;68563;45.644;13.782;2023-05-18T08:49:03;1.05;;;0.60;;
79149;SDS011;68563;45.644;13.782;2023-05-18T08:51:32;2.50;;;0.60;;
79149;SDS011;68563;45.644;13.782;2023-05-18T08:56:26;2.60;;;0.50;;
79149;SDS011;68563;45.644;13.782;2023-05-18T08:58:55;0.57;;;0.40;;
79149;SDS011;68563;45.644;13.782;2023-05-18T09:01:25;0.88;;;0.60;;
79149;SDS011;68563;45.644;13.782;2023-05-18T09:03:56;2.55;;;0.70;;
79149;SDS011;68563;45.644;13.782;2023-05-18T09:06:23;2.38;;;0.60;;
79149;SDS011;68563;45.644;13.782;2023-05-18T09:08:48;0.85;;;0.50;;
79149;SDS011;68563;45.644;13.782;2023-05-18T09:11:16;0.75;;;0.63;;
79149;SDS011;68563;45.644;13.782;2023-05-18T09:13:43;2.13;;;0.85;;
79149;SDS011;68563;45.644;13.782;2023-05-18T09:16:09;1.85;;;0.52;;
79149;SDS011;68563;45.644;13.782;2023-05-18T09:18:34;1.75;;;0.60;;
79149;SDS011;68563;45.644;13.782;2023-05-18T09:21:00;0.70;;;0.50;;
79149;SDS011;68563;45.644;13.782;2023-05-18T09:23:25;1.73;;;0.68;;
79149;SDS011;68563;45.644;13.782;2023-05-18T09:25:51;1.08;;;0.65;;
79149;SDS011;68563;45.644;13.782;2023-05-18T09:28:34;1.10;;;0.60;;
79149;SDS011;68563;45.644;13.782;2023-05-18T09:31:01;1.08;;;0.60;;
79149;SDS011;68563;45.644;13.782;2023-05-18T09:33:31;2.28;;;0.80;;
79149;SDS011;68563;45.644;13.782;2023-05-18T09:35:58;2.00;;;1.35;;
79149;SDS011;68563;45.644;13.782;2023-05-18T09:38:23;0.95;;;0.60;;
79149;SDS011;68563;45.644;13.782;2023-05-18T09:40:49;1.52;;;0.80;;
79149;SDS011;68563;45.644;13.782;2023-05-18T09:43:18;1.35;;;0.70;;
79149;SDS011;68563;45.644;13.782;2023-05-18T09:45:45;2.13;;;0.93;;
79149;SDS011;68563;45.644;13.782;2023-05-18T09:48:13;1.00;;;0.70;;
79149;SDS011;68563;45.644;13.782;2023-05-18T09:50:39;1.70;;;0.90;;
79149;SDS011;68563;45.644;13.782;2023-05-18T09:53:07;1.50;;;0.70;;
79149;SDS011;68563;45.644;13.782;2023-05-18T09:55:37;5.63;;;1.13;;
79149;SDS011;68563;45.644;13.782;2023-05-18T09:58:09;0.88;;;0.73;;
79149;SDS011;68563;45.644;13.782;2023-05-18T10:00:36;0.82;;;0.75;;
79149;SDS011;68563;45.644;13.782;2023-05-18T10:03:04;2.35;;;0.75;;
79149;SDS011;68563;45.644;13.782;2023-05-18T10:05:41;2.08;;;0.70;;
79149;SDS011;68563;45.644;13.782;2023-05-18T10:08:06;1.05;;;0.75;;
79149;SDS011;68563;45.644;13.782;2023-05-18T10:10:31;1.48;;;0.80;;
79149;SDS011;68563;45.644;13.782;2023-05-18T10:13:02;4.20;;;0.90;;
79149;SDS011;68563;45.644;13.782;2023-05-18T10:15:28;1.45;;;1.00;;
79149;SDS011;68563;45.644;13.782;2023-05-18T10:17:54;2.50;;;1.00;;
79149;SDS011;68563;45.644;13.782;2023-05-18T10:20:21;2.85;;;0.77;;
79149;SDS011;68563;45.644;13.782;2023-05-18T10:22:54;1.33;;;0.90;;
79149;SDS011;68563;45.644;13.782;2023-05-18T10:25:24;4.20;;;1.00;;
79149;SDS011;68563;45.644;13.782;2023-05-18T10:27:54;3.25;;;1.00;;
79149;SDS011;68563;45.644;13.782;2023-05-18T10:30:21;1.73;;;0.82;;
79149;SDS011;68563;45.644;13.782;2023-05-18T10:32:47;1.85;;;1.13;;
79149;SDS011;68563;45.644;13.782;2023-05-18T10:35:13;2.95;;;1.23;;
79149;SDS011;68563;45.644;13.782;2023-05-18T10:37:41;3.08;;;1.15;;
79149;SDS011;68563;45.644;13.782;2023-05-18T10:40:11;1.45;;;0.95;;
79149;SDS011;68563;45.644;13.782;2023-05-18T10:42:37;3.03;;;0.95;;
79149;SDS011;68563;45.644;13.782;2023-05-18T10:45:05;2.03;;;1.30;;
79149;SDS011;68563;45.644;13.782;2023-05-18T10:47:33;1.40;;;1.17;;
79149;SDS011;68563;45.644;13.782;2023-05-18T10:50:03;2.75;;;1.23;;
79149;SDS011;68563;45.644;13.782;2023-05-18T10:52:29;3.20;;;1.23;;
79149;SDS011;68563;45.644;13.782;2023-05-18T10:54:59;1.83;;;1.40;;
79149;SDS011;68563;45.644;13.782;2023-05-18T10:57:25;3.70;;;1.35;;
79149;SDS011;68563;45.644;13.782;2023-05-18T10:59:58;1.80;;;1.30;;
79149;SDS011;68563;45.644;13.782;2023-05-18T11:02:24;1.88;;;1.50;;
79149;SDS011;68563;45.644;13.782;2023-05-18T11:04:51;2.10;;;1.20;;
79149;SDS011;68563;45.644;13.782;2023-05-18T11:07:17;2.63;;;1.50;;
79149;SDS011;68563;45.644;13.782;2023-05-18T11:09:45;3.13;;;1.20;;
79149;SDS011;68563;45.644;13.782;2023-05-18T11:12:13;2.75;;;1.25;;
79149;SDS011;68563;45.644;13.782;2023-05-18T11:14:48;1.75;;;1.40;;
79149;SDS011;68563;45.644;13.782;2023-05-18T11:25:34;2.30;;;1.63;;
79149;SDS011;68563;45.644;13.782;2023-05-18T11:28:02;3.17;;;1.90;;
79149;SDS011;68563;45.644;13.782;2023-05-18T11:30:43;2.53;;;1.38;;
79149;SDS011;68563;45.644;13.782;2023-05-18T11:33:10;3.83;;;1.25;;
79149;SDS011;68563;45.644;13.782;2023-05-18T11:35:55;4.70;;;1.45;;
79149;SDS011;68563;45.644;13.782;2023-05-18T11:49:30;3.97;;;1.40;;
79149;SDS011;68563;45.644;13.782;2023-05-18T11:54:53;2.33;;;1.60;;
79149;SDS011;68563;45.644;13.782;2023-05-18T11:59:58;2.42;;;1.38;;
79149;SDS011;68563;45.644;13.782;2023-05-18T12:02:24;2.42;;;1.50;;
79149;SDS011;68563;45.644;13.782;2023-05-18T12:04:53;2.88;;;1.30;;
79149;SDS011;68563;45.644;13.782;2023-05-18T12:07:20;2.65;;;1.40;;
79149;SDS011;68563;45.644;13.782;2023-05-18T12:09:47;1.67;;;1.17;;
79149;SDS011;68563;45.644;13.782;2023-05-18T12:12:14;2.03;;;1.48;;
79149;SDS011;68563;45.644;13.782;2023-05-18T12:14:51;3.03;;;1.50;;
79149;SDS011;68563;45.644;13.782;2023-05-18T12:17:19;1.88;;;1.45;;
79149;SDS011;68563;45.644;13.782;2023-05-18T12:19:46;4.50;;;1.55;;
79149;SDS011;68563;45.644;13.782;2023-05-18T12:22:13;3.63;;;1.60;;
79149;SDS011;68563;45.644;13.782;2023-05-18T12:24:39;1.75;;;1.20;;
79149;SDS011;68563;45.644;13.782;2023-05-18T12:27:05;2.85;;;1.67;;
79149;SDS011;68563;45.644;13.782;2023-05-18T12:29:33;5.00;;;1.48;;
79149;SDS011;68563;45.644;13.782;2023-05-18T12:32:05;1.90;;;1.45;;
79149;SDS011;68563;45.644;13.782;2023-05-18T12:34:31;1.85;;;1.33;;
79149;SDS011;68563;45.644;13.782;2023-05-18T12:36:57;2.55;;;1.42;;
79149;SDS011;68563;45.644;13.782;2023-05-18T12:39:23;7.03;;;1.65;;
79149;SDS011;68563;45.644;13.782;2023-05-18T12:41:49;2.42;;;1.40;;
79149;SDS011;68563;45.644;13.782;2023-05-18T12:44:15;4.25;;;1.90;;
79149;SDS011;68563;45.644;13.782;2023-05-18T12:46:41;2.65;;;1.40;;
79149;SDS011;68563;45.644;13.782;2023-05-18T12:49:10;1.85;;;1.20;;
79149;SDS011;68563;45.644;13.782;2023-05-18T12:51:36;3.20;;;1.60;;
79149;SDS011;68563;45.644;13.782;2023-05-18T12:54:03;3.72;;;1.83;;
79149;SDS011;68563;45.644;13.782;2023-05-18T12:59:23;2.50;;;1.55;;
79149;SDS011;68563;45.644;13.782;2023-05-18T13:01:49;2.60;;;1.45;;
79149;SDS011;68563;45.644;13.782;2023-05-18T13:04:14;3.58;;;1.52;;
79149;SDS011;68563;45.644;13.782;2023-05-18T13:06:40;3.28;;;1.60;;
79149;SDS011;68563;45.644;13.782;2023-05-18T13:09:07;4.10;;;2.00;;
79149;SDS011;68563;45.644;13.782;2023-05-18T13:11:49;2.42;;;1.52;;
79149;SDS011;68563;45.644;13.782;2023-05-18T13:14:18;2.17;;;1.50;;
79149;SDS011;68563;45.644;13.782;2023-05-18T13:16:48;3.03;;;1.42;;
79149;SDS011;68563;45.644;13.782;2023-05-18T13:19:15;3.30;;;1.60;;
79149;SDS011;68563;45.644;13.782;2023-05-18T13:21:42;2.28;;;1.40;;
79149;SDS011;68563;45.644;13.782;2023-05-18T13:24:08;3.90;;;1.52;;
79149;SDS011;68563;45.644;13.782;2023-05-18T13:26:34;2.30;;;1.48;;
79149;SDS011;68563;45.644;13.782;2023-05-18T13:28:59;3.38;;;1.60;;
79149;SDS011;68563;45.644;13.782;2023-05-18T13:31:25;2.72;;;1.50;;
79149;SDS011;68563;45.644;13.782;2023-05-18T13:33:50;2.47;;;1.77;;
79149;SDS011;68563;45.644;13.782;2023-05-18T13:36:16;4.60;;;1.90;;
79149;SDS011;68563;45.644;13.782;2023-05-18T13:38:42;2.13;;;1.40;;
79149;SDS011;68563;45.644;13.782;2023-05-18T13:41:11;3.85;;;1.80;;
79149;SDS011;68563;45.644;13.782;2023-05-18T13:43:39;2.70;;;1.52;;
79149;SDS011;68563;45.644;13.782;2023-05-18T13:46:05;3.05;;;1.70;;
79149;SDS011;68563;45.644;13.782;2023-05-18T13:48:31;2.88;;;1.60;;
79149;SDS011;68563;45.644;13.782;2023-05-18T13:50:56;3.28;;;1.50;;
79149;SDS011;68563;45.644;13.782;2023-05-18T13:53:22;2.50;;;1.60;;
79149;SDS011;68563;45.644;13.782;2023-05-18T13:55:48;2.67;;;1.58;;
79149;SDS011;68563;45.644;13.782;2023-05-18T13:58:14;2.95;;;1.52;;
79149;SDS011;68563;45.644;13.782;2023-05-18T14:00:39;2.72;;;2.00;;
79149;SDS011;68563;45.644;13.782;2023-05-18T14:03:05;4.22;;;1.60;;
79149;SDS011;68563;45.644;13.782;2023-05-18T14:05:31;5.38;;;1.75;;
79149;SDS011;68563;45.644;13.782;2023-05-18T14:07:56;2.72;;;1.50;;
79149;SDS011;68563;45.644;13.782;2023-05-18T14:10:22;3.70;;;1.50;;
79149;SDS011;68563;45.644;13.782;2023-05-18T14:12:48;2.38;;;1.70;;
79149;SDS011;68563;45.644;13.782;2023-05-18T14:15:13;3.83;;;1.70;;
79149;SDS011;68563;45.644;13.782;2023-05-18T14:17:39;2.08;;;1.85;;
79149;SDS011;68563;45.644;13.782;2023-05-18T14:20:05;3.78;;;1.70;;
79149;SDS011;68563;45.644;13.782;2023-05-18T14:22:32;3.70;;;1.77;;
79149;SDS011;68563;45.644;13.782;2023-05-18T14:24:57;2.33;;;1.67;;
79149;SDS011;68563;45.644;13.782;2023-05-18T14:27:23;2.83;;;1.70;;
79149;SDS011;68563;45.644;13.782;2023-05-18T14:29:48;3.05;;;1.60;;
79149;SDS011;68563;45.644;13.782;2023-05-18T14:32:14;3.17;;;1.92;;
79149;SDS011;68563;45.644;13.782;2023-05-18T14:34:40;4.10;;;1.80;;
79149;SDS011;68563;45.644;13.782;2023-05-18T14:37:06;2.13;;;1.80;;
79149;SDS011;68563;45.644;13.782;2023-05-18T14:39:31;2.22;;;1.60;;
79149;SDS011;68563;45.644;13.782;2023-05-18T14:41:56;3.47;;;1.60;;
79149;SDS011;68563;45.644;13.782;2023-05-18T14:44:22;2.53;;;1.60;;
79149;SDS011;68563;45.644;13.782;2023-05-18T14:46:47;3.58;;;1.65;;
79149;SDS011;68563;45.644;13.782;2023-05-18T14:49:13;3.17;;;1.92;;
79149;SDS011;68563;45.644;13.782;2023-05-18T14:51:38;2.20;;;1.58;;
79149;SDS011;68563;45.644;13.782;2023-05-18T14:54:03;3.40;;;1.73;;
79149;SDS011;68563;45.644;13.782;2023-05-18T14:56:29;4.43;;;1.70;;
79149;SDS011;68563;45.644;13.782;2023-05-18T14:58:54;2.20;;;1.50;;
79149;SDS011;68563;45.644;13.782;2023-05-18T15:01:20;3.10;;;1.80;;
79149;SDS011;68563;45.644;13.782;2023-05-18T15:03:46;3.92;;;1.70;;
79149;SDS011;68563;45.644;13.782;2023-05-18T15:06:11;3.90;;;1.90;;
79149;SDS011;68563;45.644;13.782;2023-05-18T15:08:37;2.63;;;2.00;;